createdAt,value
2022-11-16T00:07:53.469Z,49.77
2022-11-16T00:17:58.879Z,49.69
2022-11-16T00:28:03.947Z,49.92
2022-11-16T00:38:09.235Z,50.00
2022-11-16T00:48:14.358Z,50.04
2022-11-16T00:58:19.640Z,50.17
2022-11-16T01:08:24.651Z,50.27
2022-11-16T01:18:29.755Z,50.32
2022-11-16T01:28:35.593Z,50.24
2022-11-16T01:38:41.212Z,50.19
2022-11-16T01:48:46.281Z,50.25
2022-11-16T01:58:51.673Z,50.30
2022-11-16T02:08:56.938Z,50.31
2022-11-16T02:19:02.328Z,50.28
2022-11-16T02:29:07.118Z,50.38
2022-11-16T02:39:12.705Z,50.36
2022-11-16T02:49:17.791Z,50.24
2022-11-16T02:59:22.878Z,50.30
2022-11-16T03:09:27.921Z,50.23
2022-11-16T03:19:33.113Z,50.32
2022-11-16T03:29:38.380Z,50.29
2022-11-16T03:39:43.430Z,50.71
2022-11-16T03:49:48.541Z,50.69
2022-11-16T03:59:54.129Z,50.64
2022-11-16T04:09:59.299Z,50.58
2022-11-16T04:20:04.693Z,50.58
2022-11-16T04:30:10.201Z,50.59
2022-11-16T04:40:15.391Z,50.61
2022-11-16T04:50:20.832Z,50.57
2022-11-16T05:00:26.014Z,50.47
2022-11-16T05:10:31.073Z,50.40
2022-11-16T05:20:36.507Z,50.40
2022-11-16T05:30:41.575Z,50.53
2022-11-16T05:40:46.841Z,50.66
2022-11-16T05:50:52.291Z,50.63
2022-11-16T06:00:57.784Z,50.79
2022-11-16T06:11:03.022Z,50.76
2022-11-16T06:21:08.605Z,50.70
2022-11-16T06:31:13.997Z,50.62
2022-11-16T06:41:19.714Z,50.68
2022-11-16T06:51:24.840Z,50.70
2022-11-16T07:01:30.518Z,50.75
2022-11-16T07:11:35.875Z,50.66
2022-11-16T07:21:40.982Z,50.67
2022-11-16T07:31:46.425Z,50.67
2022-11-16T07:41:51.978Z,50.71
2022-11-16T07:51:57.235Z,50.77
2022-11-16T08:02:02.207Z,50.81
2022-11-16T08:12:07.570Z,50.83
2022-11-16T08:22:12.715Z,50.89
2022-11-16T08:32:18.126Z,51.03
2022-11-16T08:42:23.131Z,51.11
2022-11-16T08:52:28.143Z,51.73
2022-11-16T09:02:33.403Z,51.52
2022-11-16T09:12:38.265Z,48.85
2022-11-16T09:22:43.569Z,46.87
2022-11-16T09:32:48.875Z,46.82
2022-11-16T09:42:54.490Z,46.38
2022-11-16T09:53:00.026Z,47.10
2022-11-16T10:03:05.125Z,47.16
2022-11-16T10:13:10.288Z,47.23
2022-11-16T10:23:15.706Z,46.57
2022-11-16T10:33:21.181Z,47.58
2022-11-16T10:43:26.625Z,48.39
2022-11-16T10:53:31.945Z,48.36
2022-11-16T11:03:37.588Z,48.54
2022-11-16T11:13:43.141Z,50.13
2022-11-16T11:23:48.594Z,50.54
2022-11-16T11:33:53.915Z,49.20
2022-11-16T11:43:58.847Z,50.68
2022-11-16T11:54:04.331Z,52.20
2022-11-16T12:04:09.698Z,53.44
2022-11-16T12:14:15.115Z,54.30
2022-11-16T12:24:20.269Z,54.20
2022-11-16T12:34:25.652Z,53.58
2022-11-16T12:44:31.034Z,53.70
2022-11-16T12:54:36.353Z,53.76
2022-11-16T13:04:41.645Z,53.76
2022-11-16T13:14:47.500Z,54.39
2022-11-16T13:24:52.956Z,52.70
2022-11-16T13:34:57.857Z,53.51
2022-11-16T13:45:03.127Z,53.45
2022-11-16T13:55:08.055Z,52.83
2022-11-16T14:05:13.774Z,52.93
2022-11-16T14:15:18.778Z,52.84
2022-11-16T14:25:24.036Z,53.11
2022-11-16T14:35:29.542Z,52.96
2022-11-16T14:45:34.827Z,52.35
2022-11-16T14:55:39.970Z,52.35
2022-11-16T15:05:45.019Z,52.46
2022-11-16T15:15:50.436Z,52.56
2022-11-16T15:25:55.800Z,52.25
2022-11-16T15:36:00.989Z,51.91
2022-11-16T15:46:06.475Z,52.07
2022-11-16T15:56:11.845Z,52.06
2022-11-16T16:06:17.420Z,51.79
2022-11-16T16:16:23.121Z,51.51
2022-11-16T16:26:28.899Z,53.06
2022-11-16T16:36:34.267Z,52.50
2022-11-16T16:46:39.746Z,53.46
2022-11-16T16:56:44.957Z,53.25
2022-11-16T17:06:50.394Z,51.47
2022-11-16T17:16:56.051Z,51.98
2022-11-16T17:27:01.660Z,52.50
2022-11-16T17:37:06.879Z,51.45
2022-11-16T17:47:12.935Z,52.23
2022-11-16T17:57:18.531Z,51.65
2022-11-16T18:07:24.238Z,51.61
2022-11-16T18:17:29.846Z,51.81
2022-11-16T18:27:35.295Z,51.22
2022-11-16T18:37:40.338Z,52.22
2022-11-16T18:47:45.952Z,51.63
2022-11-16T18:57:51.477Z,50.95
2022-11-16T19:07:56.962Z,51.14
2022-11-16T19:18:21.185Z,52.07
2022-11-16T19:28:13.349Z,52.41
2022-11-16T19:38:18.830Z,52.02
2022-11-16T19:48:24.371Z,51.97
2022-11-16T19:58:29.761Z,51.55
2022-11-16T20:08:35.351Z,51.81
2022-11-16T20:18:40.694Z,51.95
2022-11-16T20:28:46.531Z,51.83
2022-11-16T20:38:52.209Z,51.97
2022-11-16T20:48:57.880Z,51.69
2022-11-16T20:59:03.193Z,52.36
2022-11-16T21:09:08.754Z,52.57
2022-11-16T21:19:13.927Z,52.58
2022-11-16T21:29:19.728Z,52.14
2022-11-16T21:39:25.169Z,51.83
2022-11-16T21:49:30.780Z,52.05
2022-11-16T21:59:35.952Z,51.90
2022-11-16T22:09:41.429Z,51.96
2022-11-16T22:19:46.814Z,51.78
2022-11-16T22:29:51.797Z,51.25
2022-11-16T22:39:56.836Z,51.26
2022-11-16T22:50:01.783Z,51.24
2022-11-16T23:00:07.010Z,51.05
2022-11-16T23:10:12.372Z,50.89
2022-11-16T23:20:18.117Z,50.74
2022-11-16T23:30:23.287Z,50.97
2022-11-16T23:40:28.612Z,51.10
2022-11-16T23:50:34.155Z,50.78
